createdAt,value
2023-05-13T00:01:12.132Z,2.93
2023-05-13T00:03:40.292Z,2.20
2023-05-13T00:06:08.599Z,3.10
2023-05-13T00:08:36.989Z,2.97
2023-05-13T00:11:05.141Z,2.97
2023-05-13T00:13:34.449Z,2.63
2023-05-13T00:16:03.424Z,3.00
2023-05-13T00:18:31.387Z,3.17
2023-05-13T00:20:59.373Z,2.13
2023-05-13T00:23:27.303Z,1.90
2023-05-13T00:25:55.562Z,2.30
2023-05-13T00:28:23.489Z,2.80
2023-05-13T00:30:52.815Z,1.87
2023-05-13T00:33:20.849Z,2.97
2023-05-13T00:35:48.789Z,2.33
2023-05-13T00:38:17.770Z,2.90
2023-05-13T00:40:46.011Z,3.03
2023-05-13T00:43:13.961Z,3.00
2023-05-13T00:45:42.021Z,2.77
2023-05-13T00:48:11.585Z,2.50
2023-05-13T00:50:42.240Z,2.70
2023-05-13T00:53:10.333Z,3.00
2023-05-13T00:55:41.969Z,2.80
2023-05-13T00:58:10.075Z,2.10
2023-05-13T01:00:42.549Z,2.70
2023-05-13T01:03:18.814Z,2.43
2023-05-13T01:05:56.837Z,2.80
2023-05-13T01:08:32.725Z,4.60
2023-05-13T01:11:04.950Z,3.17
2023-05-13T01:13:36.916Z,3.20
2023-05-13T01:16:08.499Z,3.20
2023-05-13T01:18:41.342Z,2.87
2023-05-13T01:21:10.676Z,2.40
2023-05-13T01:23:40.023Z,2.70
2023-05-13T01:26:08.024Z,2.37
2023-05-13T01:28:36.174Z,2.77
2023-05-13T01:31:04.340Z,3.33
2023-05-13T01:33:33.411Z,2.33
2023-05-13T01:36:02.659Z,2.80
2023-05-13T01:38:30.960Z,2.60
2023-05-13T01:41:01.120Z,2.87
2023-05-13T01:43:29.065Z,2.97
2023-05-13T01:46:00.376Z,2.93
2023-05-13T01:48:28.427Z,2.37
2023-05-13T01:50:56.830Z,2.90
2023-05-13T01:53:24.936Z,3.03
2023-05-13T01:55:52.865Z,2.60
2023-05-13T01:58:22.144Z,2.77
2023-05-13T02:00:50.452Z,2.93
2023-05-13T02:03:18.474Z,2.80
2023-05-13T02:05:47.669Z,3.40
2023-05-13T02:08:15.733Z,2.30
2023-05-13T02:10:43.702Z,2.83
2023-05-13T02:13:12.551Z,2.60
2023-05-13T02:15:42.166Z,2.97
2023-05-13T02:18:10.220Z,2.90
2023-05-13T02:20:38.263Z,2.80
2023-05-13T02:23:06.349Z,2.93
2023-05-13T02:25:34.291Z,2.90
2023-05-13T02:28:02.300Z,3.13
2023-05-13T02:30:30.244Z,3.37
2023-05-13T02:32:59.851Z,2.60
2023-05-13T02:35:29.980Z,3.13
2023-05-13T02:37:58.324Z,3.10
2023-05-13T02:40:26.409Z,3.10
2023-05-13T02:42:54.707Z,2.83
2023-05-13T02:45:22.886Z,2.63
2023-05-13T02:47:51.059Z,3.10
2023-05-13T02:50:21.353Z,3.43
2023-05-13T02:52:49.524Z,2.97
2023-05-13T02:55:17.674Z,3.33
2023-05-13T02:57:45.715Z,3.00
2023-05-13T03:00:15.073Z,2.67
2023-05-13T03:02:43.654Z,3.20
2023-05-13T03:05:11.718Z,3.27
2023-05-13T03:07:41.074Z,2.67
2023-05-13T03:10:10.116Z,3.00
2023-05-13T03:12:38.342Z,2.60
2023-05-13T03:15:06.914Z,3.30
2023-05-13T03:17:35.034Z,2.70
2023-05-13T03:20:03.472Z,3.03
2023-05-13T03:22:31.566Z,2.87
2023-05-13T03:25:01.257Z,2.97
2023-05-13T03:27:29.589Z,2.97
2023-05-13T03:29:57.493Z,3.00
2023-05-13T03:32:30.605Z,2.93
2023-05-13T03:35:00.897Z,3.40
2023-05-13T03:37:29.342Z,3.17
2023-05-13T03:39:57.451Z,3.30
2023-05-13T03:42:27.374Z,2.90
2023-05-13T03:44:57.051Z,2.70
2023-05-13T03:47:25.181Z,2.83
2023-05-13T03:49:53.140Z,2.57
2023-05-13T03:52:21.284Z,3.57
2023-05-13T03:54:49.264Z,2.77
2023-05-13T03:57:17.341Z,3.53
2023-05-13T03:59:46.809Z,3.40
2023-05-13T04:02:14.970Z,2.90
2023-05-13T04:04:43.271Z,3.40
2023-05-13T04:07:11.457Z,3.13
2023-05-13T04:09:39.875Z,3.00
2023-05-13T04:12:08.816Z,3.10
2023-05-13T04:14:36.846Z,3.00
2023-05-13T04:17:06.809Z,2.40
2023-05-13T04:19:34.957Z,2.90
2023-05-13T04:22:02.971Z,2.70
2023-05-13T04:24:31.008Z,3.27
2023-05-13T04:27:01.227Z,3.83
2023-05-13T04:29:29.486Z,2.70
2023-05-13T04:31:57.622Z,3.20
2023-05-13T04:34:27.005Z,2.80
2023-05-13T04:36:54.996Z,3.30
2023-05-13T04:39:22.947Z,2.83
2023-05-13T04:41:50.920Z,2.70
2023-05-13T04:44:18.928Z,2.87
2023-05-13T04:46:46.985Z,2.90
2023-05-13T04:49:15.097Z,2.60
2023-05-13T04:51:45.027Z,3.03
2023-05-13T04:54:13.209Z,2.50
2023-05-13T04:56:41.285Z,2.60
2023-05-13T04:59:10.558Z,2.87
2023-05-13T05:01:38.572Z,2.87
2023-05-13T05:04:07.086Z,3.63
2023-05-13T05:06:35.124Z,3.03
2023-05-13T05:09:05.009Z,2.90
2023-05-13T05:11:33.030Z,2.83
2023-05-13T05:14:01.097Z,3.50
2023-05-13T05:16:29.295Z,2.80
2023-05-13T05:18:57.250Z,2.93
2023-05-13T05:21:25.281Z,3.20
2023-05-13T05:23:53.787Z,2.90
2023-05-13T05:26:23.250Z,3.10
2023-05-13T05:28:51.360Z,3.20
2023-05-13T05:31:19.436Z,3.43
2023-05-13T05:33:47.605Z,3.23
2023-05-13T05:36:15.658Z,3.00
2023-05-13T05:38:43.654Z,3.13
2023-05-13T05:41:11.661Z,3.17
2023-05-13T05:43:40.988Z,2.77
2023-05-13T05:46:10.091Z,3.00
2023-05-13T05:48:38.288Z,2.73
2023-05-13T05:51:06.783Z,3.00
2023-05-13T05:53:37.873Z,3.27
2023-05-13T05:56:06.537Z,3.10
2023-05-13T05:58:34.647Z,2.93
2023-05-13T06:01:04.145Z,3.10
2023-05-13T06:03:32.140Z,2.50
2023-05-13T06:06:00.746Z,2.97
2023-05-13T06:08:30.444Z,2.67
2023-05-13T06:10:59.150Z,2.50
2023-05-13T06:13:30.501Z,3.20
2023-05-13T06:15:59.020Z,3.10
2023-05-13T06:18:29.007Z,2.43
2023-05-13T06:20:57.056Z,3.40
2023-05-13T06:23:25.163Z,2.40
2023-05-13T06:25:53.457Z,3.37
2023-05-13T06:28:21.511Z,3.03
2023-05-13T06:30:49.533Z,3.03
2023-05-13T06:33:17.610Z,3.00
2023-05-13T06:35:49.870Z,3.37
2023-05-13T06:38:19.357Z,2.40
2023-05-13T06:40:47.652Z,2.20
2023-05-13T06:43:16.642Z,3.27
2023-05-13T06:45:45.033Z,2.90
2023-05-13T06:48:14.265Z,3.77
2023-05-13T06:50:42.293Z,3.90
2023-05-13T06:53:12.735Z,2.90
2023-05-13T06:55:42.690Z,2.47
2023-05-13T06:58:11.430Z,3.40
2023-05-13T07:00:40.654Z,2.73
2023-05-13T07:03:08.988Z,2.80
2023-05-13T07:05:37.107Z,2.80
2023-05-13T07:08:06.847Z,2.67
2023-05-13T07:10:37.432Z,2.90
2023-05-13T07:13:05.802Z,2.60
2023-05-13T07:15:33.757Z,3.17
2023-05-13T07:18:01.807Z,3.53
2023-05-13T07:20:30.574Z,3.20
2023-05-13T07:22:59.150Z,3.27
2023-05-13T07:25:27.389Z,3.33
2023-05-13T07:27:56.811Z,2.97
2023-05-13T07:30:25.181Z,2.30
2023-05-13T07:32:54.140Z,3.10
2023-05-13T07:35:22.546Z,3.00
2023-05-13T07:37:50.898Z,3.10
2023-05-13T07:40:21.174Z,3.13
2023-05-13T07:42:49.430Z,2.90
2023-05-13T07:45:19.217Z,2.90
2023-05-13T07:47:47.611Z,3.10
2023-05-13T07:50:15.853Z,3.00
2023-05-13T07:52:44.574Z,2.63
2023-05-13T07:55:12.638Z,2.93
2023-05-13T07:57:40.568Z,3.10
2023-05-13T08:00:09.791Z,2.70
2023-05-13T08:02:40.373Z,2.47
2023-05-13T08:05:09.255Z,2.60
2023-05-13T08:07:37.536Z,2.20
2023-05-13T08:10:06.382Z,2.53
2023-05-13T08:12:34.465Z,2.93
2023-05-13T08:15:03.857Z,2.27
2023-05-13T08:17:32.035Z,3.07
2023-05-13T08:20:03.726Z,2.70
2023-05-13T08:22:32.082Z,2.50
2023-05-13T08:25:01.347Z,2.50
2023-05-13T08:27:29.259Z,2.30
2023-05-13T08:29:57.416Z,2.80
2023-05-13T08:32:25.527Z,2.73
2023-05-13T08:34:54.199Z,2.40
2023-05-13T08:37:23.577Z,3.43
2023-05-13T08:39:51.646Z,2.43
2023-05-13T08:42:23.756Z,2.50
2023-05-13T08:44:53.680Z,2.63
2023-05-13T08:47:29.494Z,2.70
2023-05-13T08:49:57.840Z,2.87
2023-05-13T08:52:27.647Z,2.43
2023-05-13T08:54:57.559Z,2.90
2023-05-13T08:57:26.234Z,2.27
2023-05-13T08:59:54.466Z,3.03
2023-05-13T09:02:22.703Z,2.13
2023-05-13T09:04:55.317Z,2.60
2023-05-13T09:07:23.414Z,2.10
2023-05-13T09:09:52.947Z,1.93
2023-05-13T09:12:48.674Z,2.40
2023-05-13T09:15:17.827Z,2.70
2023-05-13T09:17:48.509Z,2.50
2023-05-13T09:20:18.583Z,2.33
2023-05-13T09:22:48.023Z,2.47
2023-05-13T09:25:19.866Z,2.30
2023-05-13T09:27:49.537Z,2.30
2023-05-13T09:30:17.611Z,2.50
2023-05-13T09:32:45.624Z,2.00
2023-05-13T09:35:18.916Z,2.30
2023-05-13T09:37:48.420Z,2.00
2023-05-13T09:40:18.993Z,2.90
2023-05-13T09:42:47.878Z,2.17
2023-05-13T09:45:17.038Z,1.70
2023-05-13T09:47:45.602Z,2.13
2023-05-13T09:50:13.854Z,2.33
2023-05-13T09:52:41.776Z,2.10
2023-05-13T09:55:10.865Z,2.30
2023-05-13T09:57:41.449Z,2.43
2023-05-13T10:00:17.982Z,2.63
2023-05-13T10:02:53.526Z,2.40
2023-05-13T10:05:22.438Z,2.70
2023-05-13T10:07:50.690Z,2.80
2023-05-13T10:10:20.855Z,2.33
2023-05-13T10:12:51.701Z,2.80
2023-05-13T10:15:20.938Z,2.10
2023-05-13T10:17:49.827Z,1.80
2023-05-13T10:20:18.180Z,1.90
2023-05-13T10:22:46.435Z,1.80
2023-05-13T10:25:14.371Z,1.90
2023-05-13T10:27:43.452Z,2.10
2023-05-13T10:30:14.453Z,1.90
2023-05-13T10:32:42.645Z,1.87
2023-05-13T10:35:14.946Z,1.93
2023-05-13T10:38:00.303Z,1.60
2023-05-13T10:40:55.609Z,1.70
2023-05-13T10:43:25.713Z,1.93
2023-05-13T10:45:59.927Z,2.20
2023-05-13T10:48:28.443Z,2.07
2023-05-13T10:50:58.788Z,2.03
2023-05-13T10:53:29.666Z,1.50
2023-05-13T10:55:59.299Z,1.40
2023-05-13T10:58:31.388Z,1.30
2023-05-13T11:01:17.696Z,1.70
2023-05-13T11:03:54.063Z,2.17
2023-05-13T11:06:23.780Z,2.10
2023-05-13T11:08:55.921Z,2.77
2023-05-13T11:11:31.116Z,2.50
2023-05-13T11:14:08.990Z,2.00
2023-05-13T11:16:39.201Z,2.53
2023-05-13T11:19:21.545Z,2.10
2023-05-13T11:21:53.000Z,1.83
2023-05-13T11:24:22.478Z,2.00
2023-05-13T11:26:52.940Z,1.50
2023-05-13T11:29:31.768Z,2.00
2023-05-13T11:32:05.333Z,1.20
2023-05-13T11:34:34.339Z,1.90
2023-05-13T11:37:10.475Z,2.23
2023-05-13T11:39:40.763Z,1.80
2023-05-13T11:42:09.651Z,1.63
2023-05-13T11:44:45.299Z,2.00
2023-05-13T11:47:14.571Z,2.40
2023-05-13T11:49:43.736Z,2.33
2023-05-13T11:52:13.738Z,2.50
2023-05-13T11:54:43.802Z,2.87
2023-05-13T11:57:26.109Z,1.70
2023-05-13T11:59:57.443Z,1.43
2023-05-13T12:02:28.831Z,1.90
2023-05-13T12:05:00.487Z,2.17
2023-05-13T12:07:28.649Z,1.50
2023-05-13T12:09:58.640Z,1.67
2023-05-13T12:12:28.132Z,2.20
2023-05-13T12:14:57.807Z,2.50
2023-05-13T12:17:27.881Z,1.70
2023-05-13T12:20:15.651Z,2.17
2023-05-13T12:22:59.845Z,1.93
2023-05-13T12:25:38.593Z,1.50
2023-05-13T12:28:12.291Z,2.27
2023-05-13T12:30:42.478Z,1.77
2023-05-13T12:33:19.060Z,1.27
2023-05-13T12:35:50.015Z,1.63
2023-05-13T12:38:19.542Z,1.37
2023-05-13T12:40:48.277Z,2.37
2023-05-13T12:43:17.794Z,1.97
2023-05-13T12:45:48.158Z,1.77
2023-05-13T12:48:17.490Z,1.60
2023-05-13T12:50:45.499Z,1.53
2023-05-13T12:53:14.107Z,1.70
2023-05-13T12:55:42.085Z,1.73
2023-05-13T12:58:13.280Z,1.70
2023-05-13T13:00:41.355Z,2.27
2023-05-13T13:03:09.721Z,2.10
2023-05-13T13:05:39.348Z,2.10
2023-05-13T13:08:07.316Z,1.70
2023-05-13T13:10:35.285Z,1.93
2023-05-13T13:13:03.355Z,1.80
2023-05-13T13:15:31.528Z,2.00
2023-05-13T13:17:59.551Z,1.67
2023-05-13T13:20:27.622Z,1.80
2023-05-13T13:22:57.525Z,1.57
2023-05-13T13:25:25.649Z,2.10
2023-05-13T13:27:53.615Z,1.77
2023-05-13T13:30:21.706Z,1.60
2023-05-13T13:32:49.647Z,1.80
2023-05-13T13:35:17.811Z,1.87
2023-05-13T13:37:45.682Z,1.83
2023-05-13T13:40:15.515Z,2.10
2023-05-13T13:42:44.938Z,1.43
2023-05-13T13:45:13.979Z,2.13
2023-05-13T13:47:42.108Z,1.80
2023-05-13T13:50:10.998Z,1.67
2023-05-13T13:52:39.015Z,2.00
2023-05-13T13:55:08.056Z,1.70
2023-05-13T13:57:37.381Z,1.97
2023-05-13T14:00:06.440Z,1.60
2023-05-13T14:02:34.434Z,1.43
2023-05-13T14:05:02.511Z,1.60
2023-05-13T14:07:30.458Z,1.83
2023-05-13T14:10:00.927Z,1.80
2023-05-13T14:12:29.409Z,2.20
2023-05-13T14:14:59.749Z,1.80
2023-05-13T14:17:27.785Z,2.10
2023-05-13T14:19:56.086Z,1.80
2023-05-13T14:22:24.559Z,1.67
2023-05-13T14:24:53.351Z,1.70
2023-05-13T14:27:24.569Z,1.87
2023-05-13T14:29:53.174Z,1.70
2023-05-13T14:32:22.536Z,2.10
2023-05-13T14:34:50.486Z,2.17
2023-05-13T14:37:18.454Z,1.70
2023-05-13T14:39:48.490Z,2.20
2023-05-13T14:42:18.280Z,1.97
2023-05-13T14:44:46.356Z,1.73
2023-05-13T14:47:14.432Z,1.80
2023-05-13T14:49:44.022Z,1.80
2023-05-13T14:52:12.031Z,1.30
2023-05-13T14:54:40.401Z,1.50
2023-05-13T14:57:08.876Z,1.53
2023-05-13T14:59:37.055Z,2.17
2023-05-13T15:02:05.692Z,1.67
2023-05-13T15:04:33.759Z,2.20
2023-05-13T15:07:03.691Z,2.63
2023-05-13T15:09:31.830Z,2.60
2023-05-13T15:11:59.921Z,2.20
2023-05-13T15:14:28.377Z,2.30
2023-05-13T15:16:56.637Z,1.90
2023-05-13T15:19:24.603Z,2.30
2023-05-13T15:21:52.641Z,2.27
2023-05-13T15:24:22.048Z,1.60
2023-05-13T15:26:50.857Z,1.90
2023-05-13T15:29:18.914Z,1.77
2023-05-13T15:31:47.328Z,1.50
2023-05-13T15:34:15.440Z,2.10
2023-05-13T15:36:43.462Z,2.30
2023-05-13T15:39:11.934Z,1.80
2023-05-13T15:41:41.503Z,1.43
2023-05-13T15:44:09.608Z,1.47
2023-05-13T15:46:37.764Z,1.60
2023-05-13T15:49:06.642Z,2.37
2023-05-13T15:51:35.669Z,1.90
2023-05-13T15:54:03.653Z,1.37
2023-05-13T15:56:31.652Z,1.37
2023-05-13T15:59:00.962Z,1.47
2023-05-13T16:01:28.913Z,1.60
2023-05-13T16:03:57.053Z,1.80
2023-05-13T16:06:25.169Z,2.23
2023-05-13T16:08:56.280Z,1.83
2023-05-13T16:11:24.758Z,2.10
2023-05-13T16:13:53.706Z,2.37
2023-05-13T16:16:23.267Z,1.73
2023-05-13T16:18:51.445Z,2.23
2023-05-13T16:21:19.917Z,1.77
2023-05-13T16:23:48.190Z,2.10
2023-05-13T16:26:16.487Z,1.80
2023-05-13T16:28:44.544Z,1.30
2023-05-13T16:31:12.563Z,1.97
2023-05-13T16:33:41.917Z,1.77
2023-05-13T16:36:11.871Z,2.30
2023-05-13T16:38:41.541Z,1.40
2023-05-13T16:41:09.791Z,2.37
2023-05-13T16:43:37.886Z,2.10
2023-05-13T16:46:06.383Z,2.17
2023-05-13T16:48:34.615Z,1.30
2023-05-13T16:51:05.087Z,2.30
2023-05-13T16:53:34.117Z,1.83
2023-05-13T16:56:02.152Z,1.90
2023-05-13T16:58:30.177Z,2.50
2023-05-13T17:00:59.456Z,1.50
2023-05-13T17:03:27.884Z,1.40
2023-05-13T17:05:56.041Z,1.87
2023-05-13T17:08:25.474Z,1.93
2023-05-13T17:10:53.404Z,3.10
2023-05-13T17:13:21.412Z,2.10
2023-05-13T17:15:49.651Z,2.93
2023-05-13T17:18:17.583Z,3.57
2023-05-13T17:20:45.963Z,2.93
2023-05-13T17:23:13.975Z,3.20
2023-05-13T17:25:43.442Z,3.17
2023-05-13T17:28:11.577Z,3.47
2023-05-13T17:30:39.544Z,3.80
2023-05-13T17:33:07.620Z,2.10
2023-05-13T17:35:35.696Z,2.30
2023-05-13T17:38:03.687Z,3.47
2023-05-13T17:40:31.936Z,2.77
2023-05-13T17:43:03.619Z,2.47
2023-05-13T17:45:31.606Z,2.97
2023-05-13T17:47:59.706Z,3.00
2023-05-13T17:50:29.910Z,3.20
2023-05-13T17:52:58.033Z,3.33
2023-05-13T17:55:25.995Z,3.20
2023-05-13T17:57:55.580Z,3.97
2023-05-13T18:00:25.669Z,3.87
2023-05-13T18:02:54.033Z,3.63
2023-05-13T18:05:22.611Z,4.83
2023-05-13T18:07:53.846Z,4.13
2023-05-13T18:10:22.233Z,2.80
2023-05-13T18:12:51.816Z,3.67
2023-05-13T18:15:20.125Z,3.80
2023-05-13T18:17:50.857Z,4.20
2023-05-13T18:20:19.783Z,2.70
2023-05-13T18:22:47.764Z,4.17
2023-05-13T18:25:15.896Z,3.83
2023-05-13T18:27:43.900Z,3.60
2023-05-13T18:30:13.145Z,2.97
2023-05-13T18:32:41.112Z,3.70
2023-05-13T18:35:11.125Z,4.80
2023-05-13T18:37:39.086Z,3.90
2023-05-13T18:40:08.263Z,5.00
2023-05-13T18:42:36.237Z,4.77
2023-05-13T18:45:04.261Z,5.07
2023-05-13T18:47:32.181Z,4.97
2023-05-13T18:50:00.357Z,5.50
2023-05-13T18:52:29.637Z,4.10
2023-05-13T18:54:57.518Z,5.43
2023-05-13T18:57:25.711Z,5.70
2023-05-13T18:59:53.763Z,4.70
2023-05-13T19:02:21.944Z,4.10
2023-05-13T19:04:50.101Z,4.70
2023-05-13T19:07:18.013Z,4.50
2023-05-13T19:09:48.453Z,4.60
2023-05-13T19:12:16.429Z,5.97
2023-05-13T19:14:44.523Z,4.70
2023-05-13T19:17:12.778Z,3.87
2023-05-13T19:19:41.124Z,5.03
2023-05-13T19:22:09.037Z,4.87
2023-05-13T19:24:37.357Z,5.30
2023-05-13T19:27:06.967Z,5.27
2023-05-13T19:29:35.356Z,4.60
2023-05-13T19:32:03.260Z,5.10
2023-05-13T19:34:31.177Z,5.87
2023-05-13T19:36:59.289Z,5.13
2023-05-13T19:39:27.240Z,5.07
2023-05-13T19:41:55.907Z,4.70
2023-05-13T19:44:27.972Z,5.83
2023-05-13T19:46:56.653Z,5.23
2023-05-13T19:49:26.217Z,5.50
2023-05-13T19:51:54.400Z,5.03
2023-05-13T19:54:22.532Z,4.83
2023-05-13T19:56:50.503Z,5.10
2023-05-13T19:59:18.497Z,4.90
2023-05-13T20:01:48.099Z,6.07
2023-05-13T20:04:16.511Z,5.30
2023-05-13T20:06:44.546Z,4.80
2023-05-13T20:09:12.486Z,6.10
2023-05-13T20:11:40.433Z,5.37
2023-05-13T20:14:08.545Z,5.30
2023-05-13T20:16:36.988Z,5.60
2023-05-13T20:19:06.466Z,6.30
2023-05-13T20:21:34.592Z,5.27
2023-05-13T20:24:02.589Z,6.80
2023-05-13T20:26:34.600Z,5.30
2023-05-13T20:29:02.736Z,6.30
2023-05-13T20:31:30.796Z,6.70
2023-05-13T20:33:58.876Z,6.63
2023-05-13T20:36:28.467Z,7.40
2023-05-13T20:38:56.550Z,7.13
2023-05-13T20:41:24.663Z,6.53
2023-05-13T20:43:52.886Z,7.47
2023-05-13T20:46:20.913Z,6.50
2023-05-13T20:48:48.930Z,6.33
2023-05-13T20:51:17.000Z,7.10
2023-05-13T20:53:47.380Z,6.73
2023-05-13T20:56:15.304Z,5.83
2023-05-13T20:58:43.252Z,6.60
2023-05-13T21:01:11.445Z,7.73
2023-05-13T21:03:39.437Z,8.20
2023-05-13T21:06:12.823Z,6.17
2023-05-13T21:08:40.853Z,6.13
2023-05-13T21:11:10.273Z,5.50
2023-05-13T21:13:38.213Z,6.10
2023-05-13T21:16:07.284Z,6.93
2023-05-13T21:18:35.268Z,7.27
2023-05-13T21:21:08.502Z,6.50
2023-05-13T21:23:37.055Z,8.13
2023-05-13T21:26:06.399Z,6.40
2023-05-13T21:28:35.826Z,6.70
2023-05-13T21:31:04.096Z,7.23
2023-05-13T21:33:32.638Z,7.70
2023-05-13T21:36:00.776Z,7.30
2023-05-13T21:38:28.923Z,6.87
2023-05-13T21:40:57.078Z,7.40
2023-05-13T21:43:25.207Z,7.30
2023-05-13T21:45:54.494Z,7.40
2023-05-13T21:48:22.659Z,7.63
2023-05-13T21:50:50.983Z,7.17
2023-05-13T21:53:18.898Z,6.97
2023-05-13T21:55:46.935Z,7.70
2023-05-13T21:58:14.864Z,7.97
2023-05-13T22:00:42.933Z,8.30
2023-05-13T22:03:12.683Z,7.27
2023-05-13T22:05:44.186Z,7.83
2023-05-13T22:08:12.491Z,7.17
2023-05-13T22:10:40.982Z,7.80
2023-05-13T22:13:08.861Z,7.27
2023-05-13T22:15:36.852Z,7.57
2023-05-13T22:18:05.407Z,7.10
2023-05-13T22:20:34.844Z,6.50
2023-05-13T22:23:02.799Z,6.17
2023-05-13T22:25:30.790Z,6.83
2023-05-13T22:27:59.027Z,6.10
2023-05-13T22:30:26.990Z,7.10
2023-05-13T22:32:55.934Z,7.10
2023-05-13T22:35:24.044Z,5.80
2023-05-13T22:37:53.424Z,6.70
2023-05-13T22:40:21.578Z,6.20
2023-05-13T22:42:49.701Z,6.23
2023-05-13T22:45:17.937Z,7.17
2023-05-13T22:47:45.889Z,6.03
2023-05-13T22:50:13.791Z,6.10
2023-05-13T22:52:41.767Z,6.63
2023-05-13T22:55:11.504Z,5.93
2023-05-13T22:57:39.475Z,7.33
2023-05-13T23:00:08.860Z,7.20
2023-05-13T23:02:36.872Z,7.47
2023-05-13T23:05:04.977Z,6.60
2023-05-13T23:07:32.902Z,6.23
2023-05-13T23:10:00.891Z,6.13
2023-05-13T23:12:30.683Z,5.87
2023-05-13T23:14:58.893Z,6.33
2023-05-13T23:17:26.878Z,6.40
2023-05-13T23:19:54.883Z,6.27
2023-05-13T23:22:22.848Z,7.50
2023-05-13T23:24:50.871Z,6.60
2023-05-13T23:27:18.801Z,6.90
2023-05-13T23:29:48.119Z,6.80
2023-05-13T23:32:16.101Z,6.27
2023-05-13T23:34:44.061Z,8.33
2023-05-13T23:37:12.343Z,6.10
2023-05-13T23:39:40.345Z,7.10
2023-05-13T23:42:08.606Z,6.93
2023-05-13T23:44:36.630Z,7.40
2023-05-13T23:47:06.324Z,7.80
2023-05-13T23:49:34.331Z,7.40
2023-05-13T23:52:02.297Z,7.63
2023-05-13T23:54:30.294Z,7.57
2023-05-13T23:56:58.298Z,7.50
2023-05-13T23:59:26.190Z,7.80
